Flight Track Log - Related Links

Times and Time Zones

All times are in EDT time to prevent confusion due to time zone crossing. See the ASQ6070 flight status page for this flight to view local times or setup timezone preferences in your user account.

Time Position Orientation Groundspeed Altitude Reporting Facility
EDT Latitude Longitude Course Direction KTS MPH feet Rate Location/Type
Sun 03:46:08 PM 32.0994 -110.9228 127° Southeast 184 212 3,000  Level Albuquerque Center
Sun 03:47:03 PM 32.0656 -110.8700 116° Southeast 220 253 4,600 1,774 Climbing Albuquerque Center
Sun 03:48:03 PM 32.0364 -110.8003 103° East 256 295 6,400 1,934 Climbing Albuquerque Center
Sun 03:49:04 PM 32.0200 -110.7139 85° East 270 311 8,500 1,914 Climbing Albuquerque Center
Sun 03:49:59 PM 32.0267 -110.6308 30° Northeast 303 349 10,100 1,694 Climbing Albuquerque Center
Sun 03:51:08 PM 32.1200 -110.5683 24° Northeast 329 379 12,000 1,395 Climbing Albuquerque Center
Sun 03:52:08 PM 32.2108 -110.5200 27° Northeast 334 384 13,100 1,000 Climbing Albuquerque Center
Sun 03:53:08 PM 32.3064 -110.4622 28° Northeast 359 413 14,000 950 Climbing Albuquerque Center
Sun 03:54:08 PM 32.4058 -110.3994 26° Northeast 380 437 15,000 893 Climbing Albuquerque Center
Sun 03:55:09 PM 32.4928 -110.3483 29° Northeast 387 445 15,800 950 Climbing Albuquerque Center
Sun 03:56:08 PM 32.6050 -110.2758 27° Northeast 401 461 16,900 1,050 Climbing Albuquerque Center
Sun 03:57:09 PM 32.7089 -110.2128 26° Northeast 401 461 17,900 1,000 Climbing Albuquerque Center
Sun 03:58:08 PM 32.8125 -110.1519 28° Northeast 406 467 18,900 1,008 Climbing Albuquerque Center
Sun 03:59:08 PM 32.9139 -110.0886 28° Northeast 411 473 19,900 1,000 Climbing Albuquerque Center
Sun 04:00:08 PM 33.0114 -110.0272 27° Northeast 417 480 20,900 1,000 Climbing Albuquerque Center
Sun 04:01:08 PM 33.1169 -109.9639 27° Northeast 417 480 21,900 992 Climbing Albuquerque Center
Sun 04:02:09 PM 33.2206 -109.9000 27° Northeast 417 480 22,900 950 Climbing Albuquerque Center
Sun 04:03:08 PM 33.3283 -109.8336 28° Northeast 412 474 23,800 958 Climbing Albuquerque Center
Sun 04:04:08 PM 33.4342 -109.7669 27° Northeast 417 480 24,800 1,000 Climbing Albuquerque Center
Sun 04:05:08 PM 33.5417 -109.7003 27° Northeast 417 480 25,800 1,000 Climbing Albuquerque Center
Sun 04:06:08 PM 33.6494 -109.6336 27° Northeast 417 480 26,800 1,000 Climbing Albuquerque Center
Sun 04:07:08 PM 33.7592 -109.5667 27° Northeast 417 480 27,800 950 Climbing Albuquerque Center
Sun 04:08:08 PM 33.8669 -109.4994 28° Northeast 422 486 28,700 850 Climbing Albuquerque Center
Sun 04:09:08 PM 33.9722 -109.4319 28° Northeast 422 486 29,500 800 Climbing Albuquerque Center
Sun 04:10:08 PM 34.0819 -109.3619 28° Northeast 428 493 30,300 750 Climbing Albuquerque Center
Sun 04:11:08 PM 34.1917 -109.2919 27° Northeast 433 498 31,000 750 Climbing Albuquerque Center
Sun 04:12:08 PM 34.3033 -109.2242 25° Northeast 433 498 31,800 800 Climbing Albuquerque Center
Sun 04:14:08 PM 34.5306 -109.0981 21° North 443 510 33,400 800 Climbing Albuquerque Center
Sun 04:15:08 PM 34.6461 -109.0450 19° North 443 510 34,200 800 Climbing Albuquerque Center
Sun 04:16:08 PM 34.7678 -108.9944 21° North 444 511 35,000 800 Climbing Albuquerque Center
Sun 04:17:08 PM 34.8939 -108.9364 20° North 455 524 35,800 800 Climbing Albuquerque Center
Sun 04:18:08 PM 35.0092 -108.8853 21° North 445 512 36,600 600 Climbing Albuquerque Center
Sun 04:19:08 PM 35.1100 -108.8389 20° North 428 493 37,000 200 Climbing Albuquerque Center
Sun 04:20:08 PM 35.2381 -108.7828 19° North 433 498 37,000  Level Albuquerque Center
Sun 04:21:08 PM 35.3575 -108.7314 21° North 438 504 37,000  Level Albuquerque Center
Sun 04:22:08 PM 35.4728 -108.6772 19° North 438 504 37,000  Level Albuquerque Center
Sun 04:23:08 PM 35.5819 -108.6306 20° North 445 512 37,000  Level Albuquerque Center
Sun 04:25:19 PM 35.8422 -108.5131 20° North 450 518 37,000  Level Denver Center
Sun 04:26:22 PM 35.9711 -108.4542 20° North 447 514 37,000  Level Denver Center
Sun 04:27:24 PM 36.0808 -108.4044 20° North 444 511 37,000  Level Denver Center
Sun 04:28:27 PM 36.2089 -108.3467 33° Northeast 442 509 37,000  Level Denver Center
Sun 04:29:29 PM 36.3050 -108.2694 37° Northeast 434 499 37,000  Level Denver Center
Sun 04:30:32 PM 36.4128 -108.1669 37° Northeast 436 502 37,000  Level Denver Center
Sun 04:31:34 PM 36.5050 -108.0789 38° Northeast 436 502 37,000  Level Denver Center
Sun 04:32:36 PM 36.6119 -107.9761 38° Northeast 435 501 37,000  Level Denver Center
Sun 04:33:39 PM 36.7031 -107.8875 38° Northeast 435 501 37,000  Level Denver Center
Sun 04:34:41 PM 36.8086 -107.7853 38° Northeast 431 496 37,000  Level Denver Center
Sun 04:35:44 PM 36.8986 -107.6975 51° Northeast 428 493 37,000  Level Denver Center
Sun 04:36:46 PM 36.9828 -107.5678 51° Northeast 427 491 37,000  Level Denver Center
Sun 04:37:49 PM 37.0550 -107.4561 51° Northeast 431 496 37,000  Level Denver Center
Sun 04:38:51 PM 37.1381 -107.3253 51° Northeast 430 495 37,000  Level Denver Center
Sun 04:39:54 PM 37.2106 -107.2144 35° Northeast 430 495 37,000  Level Denver Center
Sun 04:40:56 PM 37.3186 -107.1175 36° Northeast 427 491 37,000  Level Denver Center
Sun 04:41:59 PM 37.4100 -107.0331 36° Northeast 426 490 37,000  Level Denver Center
Sun 04:43:01 PM 37.5169 -106.9361 36° Northeast 423 487 37,000  Level Denver Center
Sun 04:44:04 PM 37.6089 -106.8519 36° Northeast 426 490 37,000  Level Denver Center
Sun 04:45:06 PM 37.7156 -106.7544 36° Northeast 424 488 37,000  Level Denver Center
Sun 04:46:09 PM 37.8206 -106.6589 36° Northeast 425 489 37,000  Level Denver Center
Sun 04:47:11 PM 37.9117 -106.5742 36° Northeast 425 489 37,000 -144 Level Denver Center
Sun 04:48:14 PM 38.0131 -106.4806 36° Northeast 423 487 36,700 -720 Descending Denver Center
Sun 04:49:16 PM 38.1081 -106.3928 36° Northeast 421 484 35,500 -1,344 Descending Denver Center
Sun 04:50:19 PM 38.2153 -106.2939 36° Northeast 424 488 33,900 -1,440 Descending Denver Center
Sun 04:51:21 PM 38.3075 -106.2081 36° Northeast 428 493 32,500 -1,452 Descending Denver Center
Sun 04:52:23 PM 38.4128 -106.1089 36° Northeast 434 499 30,900 -1,392 Descending Denver Center
Sun 04:53:26 PM 38.5072 -106.0197 36° Northeast 437 503 29,600 -1,392 Descending Denver Center
Sun 04:54:28 PM 38.6200 -105.9139 36° Northeast 446 513 28,000 -1,536 Descending Denver Center
Sun 04:55:31 PM 38.7303 -105.8094 37° Northeast 450 518 26,400 -1,440 Descending Denver Center
Sun 04:56:33 PM 38.8308 -105.7136 36° Northeast 455 524 25,000 -1,488 Descending Denver Center
Sun 04:57:36 PM 38.9256 -105.6236 37° Northeast 446 513 23,300 -1,728 Descending Denver Center
Sun 04:58:38 PM 39.0333 -105.5192 36° Northeast 437 503 21,400 -1,728 Descending Denver Center
Sun 04:59:41 PM 39.1261 -105.4308 37° Northeast 431 496 19,700 -1,968 Descending Denver Center
Sun 05:00:43 PM 39.2300 -105.3303 24° Northeast 404 465 17,300 -1,597 Descending Denver Center
Sun 05:01:45 PM 39.3156 -105.2800 21° North 343 395 16,400 -1,200 Descending Denver Center
Sun 05:02:48 PM 39.4097 -105.2322 22° Northeast 340 391 14,800 -1,440 Descending Denver Center
Sun 05:03:50 PM 39.4950 -105.1881 22° Northeast 333 383 13,400 -816 Descending Denver Center
Sun 05:04:53 PM 39.5817 -105.1417 21° North 314 361 13,100 -144 Descending Denver Center
Sun 05:05:55 PM 39.6597 -105.1033 19° North 303 349 13,100 -48 Level Denver Center
Sun 05:06:58 PM 39.7436 -105.0647 22° Northeast 297 342 13,000 -720 Descending Denver Center
Sun 05:08:00 PM 39.8092 -105.0306 59° Northeast 259 298 11,600 -1,440 Descending Denver Center
Sun 05:09:03 PM 39.8458 -104.9517 94° East 247 284 10,000 -1,632 Descending Denver Center
Sun 05:10:05 PM 39.8411 -104.8694 90° East 222 255 8,200 -1,584 Descending Denver Center
Sun 05:11:08 PM 39.8411 -104.7997 91° East 183 211 6,700 -1,296 Descending Denver Center
Sun 05:12:10 PM 39.8403 -104.7314 91° East 178 205 5,500 -624 Descending Denver Center
Sun 05:13:13 PM 39.8394 -104.6694 201° Southwest 175 201 5,400 -95 Descending Denver Center
Sun 05:20:32 PM 39.5890 -104.7925 22° Northeast  Level FlightAware Approximate
Sun 05:21:32 PM 39.6992 -104.7359 22° Northeast  Level FlightAware Approximate
Sun 05:22:32 PM 39.8094 -104.6790 22° Northeast  Level FlightAware Approximate

Login

Don't have an account? Register now (free) for customized features, flight alerts, and more!